sensor_id;sensor_type;location;lat;lon;timestamp;temperature;humidity
40289;DHT22;28991;52.028;5.526;2022-08-21T00:00:09;24.70;61.20
40289;DHT22;28991;52.028;5.526;2022-08-21T00:02:35;24.70;61.20
40289;DHT22;28991;52.028;5.526;2022-08-21T00:05:01;25.00;61.20
40289;DHT22;28991;52.028;5.526;2022-08-21T00:07:27;24.80;61.10
40289;DHT22;28991;52.028;5.526;2022-08-21T00:09:53;24.80;61.10
40289;DHT22;28991;52.028;5.526;2022-08-21T00:12:22;24.80;61.10
40289;DHT22;28991;52.028;5.526;2022-08-21T00:14:47;24.80;61.10
40289;DHT22;28991;52.028;5.526;2022-08-21T00:17:13;24.80;61.00
40289;DHT22;28991;52.028;5.526;2022-08-21T00:19:39;24.80;61.00
40289;DHT22;28991;52.028;5.526;2022-08-21T00:22:04;24.70;60.90
40289;DHT22;28991;52.028;5.526;2022-08-21T00:24:30;25.00;61.10
40289;DHT22;28991;52.028;5.526;2022-08-21T00:26:55;24.70;60.90
40289;DHT22;28991;52.028;5.526;2022-08-21T00:29:21;24.70;60.90
40289;DHT22;28991;52.028;5.526;2022-08-21T00:31:47;24.70;60.90
40289;DHT22;28991;52.028;5.526;2022-08-21T00:34:13;24.80;60.90
40289;DHT22;28991;52.028;5.526;2022-08-21T00:36:38;24.80;60.90
40289;DHT22;28991;52.028;5.526;2022-08-21T00:39:06;24.70;60.80
40289;DHT22;28991;52.028;5.526;2022-08-21T00:41:33;24.80;60.80
40289;DHT22;28991;52.028;5.526;2022-08-21T00:43:59;24.90;60.90
40289;DHT22;28991;52.028;5.526;2022-08-21T00:46:25;24.80;60.80
40289;DHT22;28991;52.028;5.526;2022-08-21T00:48:50;24.70;60.70
40289;DHT22;28991;52.028;5.526;2022-08-21T00:51:24;24.70;60.70
40289;DHT22;28991;52.028;5.526;2022-08-21T00:53:56;24.70;60.60
40289;DHT22;28991;52.028;5.526;2022-08-21T00:56:25;24.70;60.60
40289;DHT22;28991;52.028;5.526;2022-08-21T00:58:52;24.70;60.60
40289;DHT22;28991;52.028;5.526;2022-08-21T01:01:18;24.70;60.60
40289;DHT22;28991;52.028;5.526;2022-08-21T01:03:45;24.70;60.60
40289;DHT22;28991;52.028;5.526;2022-08-21T01:06:11;24.70;60.60
40289;DHT22;28991;52.028;5.526;2022-08-21T01:08:37;24.70;60.50
40289;DHT22;28991;52.028;5.526;2022-08-21T01:11:03;24.70;60.60
40289;DHT22;28991;52.028;5.526;2022-08-21T01:13:31;24.70;60.50
40289;DHT22;28991;52.028;5.526;2022-08-21T01:15:59;24.70;60.50
40289;DHT22;28991;52.028;5.526;2022-08-21T01:18:27;25.50;61.00
40289;DHT22;28991;52.028;5.526;2022-08-21T01:21:19;24.70;60.40
40289;DHT22;28991;52.028;5.526;2022-08-21T01:23:47;24.70;60.40
40289;DHT22;28991;52.028;5.526;2022-08-21T01:26:16;24.70;60.40
40289;DHT22;28991;52.028;5.526;2022-08-21T01:28:48;24.70;60.40
40289;DHT22;28991;52.028;5.526;2022-08-21T01:31:15;24.70;61.00
40289;DHT22;28991;52.028;5.526;2022-08-21T01:33:42;24.70;60.40
40289;DHT22;28991;52.028;5.526;2022-08-21T01:36:08;24.90;60.40
40289;DHT22;28991;52.028;5.526;2022-08-21T01:38:33;24.70;60.30
40289;DHT22;28991;52.028;5.526;2022-08-21T01:40:59;24.70;60.30
40289;DHT22;28991;52.028;5.526;2022-08-21T01:43:25;24.70;60.30
40289;DHT22;28991;52.028;5.526;2022-08-21T01:45:51;24.70;60.30
40289;DHT22;28991;52.028;5.526;2022-08-21T01:48:16;24.70;60.20
40289;DHT22;28991;52.028;5.526;2022-08-21T01:50:42;24.60;60.20
40289;DHT22;28991;52.028;5.526;2022-08-21T01:53:08;24.70;60.20
40289;DHT22;28991;52.028;5.526;2022-08-21T01:55:33;24.70;60.20
40289;DHT22;28991;52.028;5.526;2022-08-21T01:57:59;24.70;60.20
40289;DHT22;28991;52.028;5.526;2022-08-21T02:00:25;24.70;60.20
40289;DHT22;28991;52.028;5.526;2022-08-21T02:02:51;25.10;60.40
40289;DHT22;28991;52.028;5.526;2022-08-21T02:05:17;24.70;60.20
40289;DHT22;28991;52.028;5.526;2022-08-21T02:07:47;24.70;60.10
40289;DHT22;28991;52.028;5.526;2022-08-21T02:10:15;24.70;60.10
40289;DHT22;28991;52.028;5.526;2022-08-21T02:12:41;24.70;60.10
40289;DHT22;28991;52.028;5.526;2022-08-21T02:15:08;24.70;60.10
40289;DHT22;28991;52.028;5.526;2022-08-21T02:17:43;24.70;60.10
40289;DHT22;28991;52.028;5.526;2022-08-21T02:20:20;24.70;60.00
40289;DHT22;28991;52.028;5.526;2022-08-21T02:22:46;24.70;60.00
40289;DHT22;28991;52.028;5.526;2022-08-21T02:25:11;24.70;60.10
40289;DHT22;28991;52.028;5.526;2022-08-21T02:27:42;24.70;60.10
40289;DHT22;28991;52.028;5.526;2022-08-21T02:30:12;24.70;60.10
40289;DHT22;28991;52.028;5.526;2022-08-21T02:32:38;24.70;60.00
40289;DHT22;28991;52.028;5.526;2022-08-21T02:35:04;24.70;60.00
40289;DHT22;28991;52.028;5.526;2022-08-21T02:37:30;24.70;60.00
40289;DHT22;28991;52.028;5.526;2022-08-21T02:39:56;24.80;60.00
40289;DHT22;28991;52.028;5.526;2022-08-21T02:42:21;24.70;60.00
40289;DHT22;28991;52.028;5.526;2022-08-21T02:44:47;24.70;60.00
40289;DHT22;28991;52.028;5.526;2022-08-21T02:47:14;26.20;61.00
40289;DHT22;28991;52.028;5.526;2022-08-21T02:49:39;25.10;60.20
40289;DHT22;28991;52.028;5.526;2022-08-21T02:52:05;26.60;61.20
40289;DHT22;28991;52.028;5.526;2022-08-21T02:54:31;24.70;59.90
40289;DHT22;28991;52.028;5.526;2022-08-21T02:56:57;27.00;61.50
40289;DHT22;28991;52.028;5.526;2022-08-21T02:59:23;25.80;60.70
40289;DHT22;28991;52.028;5.526;2022-08-21T03:01:48;24.70;59.90
40289;DHT22;28991;52.028;5.526;2022-08-21T03:04:14;24.70;59.90
40289;DHT22;28991;52.028;5.526;2022-08-21T03:06:39;24.70;59.90
40289;DHT22;28991;52.028;5.526;2022-08-21T03:09:05;24.70;59.90
40289;DHT22;28991;52.028;5.526;2022-08-21T03:11:31;24.70;59.90
40289;DHT22;28991;52.028;5.526;2022-08-21T03:13:56;24.60;59.80
40289;DHT22;28991;52.028;5.526;2022-08-21T03:16:22;24.90;59.90
40289;DHT22;28991;52.028;5.526;2022-08-21T03:18:47;24.90;59.90
40289;DHT22;28991;52.028;5.526;2022-08-21T03:21:13;24.70;59.80
40289;DHT22;28991;52.028;5.526;2022-08-21T03:23:39;24.70;59.80
40289;DHT22;28991;52.028;5.526;2022-08-21T03:26:07;24.70;59.80
40289;DHT22;28991;52.028;5.526;2022-08-21T03:28:33;24.70;59.80
40289;DHT22;28991;52.028;5.526;2022-08-21T03:30:59;25.70;60.40
40289;DHT22;28991;52.028;5.526;2022-08-21T03:33:24;24.60;59.70
40289;DHT22;28991;52.028;5.526;2022-08-21T03:36:03;24.70;59.70
40289;DHT22;28991;52.028;5.526;2022-08-21T03:38:31;24.70;59.70
40289;DHT22;28991;52.028;5.526;2022-08-21T03:40:57;25.30;60.00
40289;DHT22;28991;52.028;5.526;2022-08-21T03:43:23;24.70;59.60
40289;DHT22;28991;52.028;5.526;2022-08-21T03:45:49;24.70;59.60
40289;DHT22;28991;52.028;5.526;2022-08-21T03:48:15;24.60;59.50
40289;DHT22;28991;52.028;5.526;2022-08-21T03:50:42;24.70;59.60
40289;DHT22;28991;52.028;5.526;2022-08-21T03:53:09;25.10;59.80
40289;DHT22;28991;52.028;5.526;2022-08-21T03:55:35;24.70;59.60
40289;DHT22;28991;52.028;5.526;2022-08-21T03:58:02;24.70;59.50
40289;DHT22;28991;52.028;5.526;2022-08-21T04:00:29;24.70;60.10
40289;DHT22;28991;52.028;5.526;2022-08-21T04:02:54;24.60;59.50
40289;DHT22;28991;52.028;5.526;2022-08-21T04:05:21;24.60;59.50
40289;DHT22;28991;52.028;5.526;2022-08-21T04:07:54;24.80;59.60
40289;DHT22;28991;52.028;5.526;2022-08-21T04:10:20;26.20;60.50
40289;DHT22;28991;52.028;5.526;2022-08-21T04:12:46;24.60;59.40
40289;DHT22;28991;52.028;5.526;2022-08-21T04:15:12;24.70;59.50
40289;DHT22;28991;52.028;5.526;2022-08-21T04:17:38;24.70;59.50
40289;DHT22;28991;52.028;5.526;2022-08-21T04:20:04;24.50;59.30
40289;DHT22;28991;52.028;5.526;2022-08-21T04:22:30;24.60;59.40
40289;DHT22;28991;52.028;5.526;2022-08-21T04:24:55;24.60;59.40
40289;DHT22;28991;52.028;5.526;2022-08-21T04:27:22;24.60;59.30
40289;DHT22;28991;52.028;5.526;2022-08-21T04:29:47;25.10;59.60
40289;DHT22;28991;52.028;5.526;2022-08-21T04:32:13;24.60;59.30
40289;DHT22;28991;52.028;5.526;2022-08-21T04:34:38;24.60;59.30
40289;DHT22;28991;52.028;5.526;2022-08-21T04:37:04;24.60;59.30
40289;DHT22;28991;52.028;5.526;2022-08-21T04:39:30;24.60;59.40
40289;DHT22;28991;52.028;5.526;2022-08-21T04:41:55;24.70;59.20
40289;DHT22;28991;52.028;5.526;2022-08-21T04:44:21;24.60;58.50
40289;DHT22;28991;52.028;5.526;2022-08-21T04:46:47;24.70;57.70
40289;DHT22;28991;52.028;5.526;2022-08-21T04:49:12;24.60;56.90
40289;DHT22;28991;52.028;5.526;2022-08-21T04:51:38;24.60;55.80
40289;DHT22;28991;52.028;5.526;2022-08-21T04:54:13;24.60;55.20
40289;DHT22;28991;52.028;5.526;2022-08-21T04:56:53;24.90;55.00
40289;DHT22;28991;52.028;5.526;2022-08-21T04:59:22;24.60;54.40
40289;DHT22;28991;52.028;5.526;2022-08-21T05:01:49;24.60;54.00
40289;DHT22;28991;52.028;5.526;2022-08-21T05:04:18;24.60;53.80
40289;DHT22;28991;52.028;5.526;2022-08-21T05:06:48;24.50;53.60
40289;DHT22;28991;52.028;5.526;2022-08-21T05:09:16;24.50;53.50
40289;DHT22;28991;52.028;5.526;2022-08-21T05:11:43;24.40;53.30
40289;DHT22;28991;52.028;5.526;2022-08-21T05:14:10;24.30;53.20
40289;DHT22;28991;52.028;5.526;2022-08-21T05:16:37;24.40;53.30
40289;DHT22;28991;52.028;5.526;2022-08-21T05:19:05;24.30;53.20
40289;DHT22;28991;52.028;5.526;2022-08-21T05:21:32;25.30;53.70
40289;DHT22;28991;52.028;5.526;2022-08-21T05:23:58;24.30;53.20
40289;DHT22;28991;52.028;5.526;2022-08-21T05:26:23;24.20;53.20
40289;DHT22;28991;52.028;5.526;2022-08-21T05:28:49;24.20;53.30
40289;DHT22;28991;52.028;5.526;2022-08-21T05:31:14;26.00;54.40
40289;DHT22;28991;52.028;5.526;2022-08-21T05:33:40;24.10;53.40
40289;DHT22;28991;52.028;5.526;2022-08-21T05:36:06;24.10;53.40
40289;DHT22;28991;52.028;5.526;2022-08-21T05:38:31;24.10;53.50
40289;DHT22;28991;52.028;5.526;2022-08-21T05:40:57;24.10;53.50
40289;DHT22;28991;52.028;5.526;2022-08-21T05:43:22;24.10;53.50
40289;DHT22;28991;52.028;5.526;2022-08-21T05:45:48;24.10;53.70
40289;DHT22;28991;52.028;5.526;2022-08-21T05:48:18;24.00;53.60
40289;DHT22;28991;52.028;5.526;2022-08-21T05:50:45;24.00;53.70
40289;DHT22;28991;52.028;5.526;2022-08-21T05:53:12;24.00;53.70
40289;DHT22;28991;52.028;5.526;2022-08-21T05:55:39;24.00;53.80
40289;DHT22;28991;52.028;5.526;2022-08-21T05:58:05;24.00;53.80
40289;DHT22;28991;52.028;5.526;2022-08-21T06:00:30;23.90;53.90
40289;DHT22;28991;52.028;5.526;2022-08-21T06:02:57;25.50;54.90
40289;DHT22;28991;52.028;5.526;2022-08-21T06:05:23;23.90;54.00
40289;DHT22;28991;52.028;5.526;2022-08-21T06:07:49;23.90;54.10
40289;DHT22;28991;52.028;5.526;2022-08-21T06:10:14;23.90;54.10
40289;DHT22;28991;52.028;5.526;2022-08-21T06:12:40;24.00;54.20
40289;DHT22;28991;52.028;5.526;2022-08-21T06:15:06;25.10;54.90
40289;DHT22;28991;52.028;5.526;2022-08-21T06:17:31;23.80;54.20
40289;DHT22;28991;52.028;5.526;2022-08-21T06:19:57;23.80;54.30
40289;DHT22;28991;52.028;5.526;2022-08-21T06:22:23;23.90;54.40
40289;DHT22;28991;52.028;5.526;2022-08-21T06:24:48;23.80;54.40
40289;DHT22;28991;52.028;5.526;2022-08-21T06:27:14;23.90;54.50
40289;DHT22;28991;52.028;5.526;2022-08-21T06:29:41;23.80;54.50
40289;DHT22;28991;52.028;5.526;2022-08-21T06:32:06;23.80;54.60
40289;DHT22;28991;52.028;5.526;2022-08-21T06:34:40;23.80;54.80
40289;DHT22;28991;52.028;5.526;2022-08-21T06:37:05;24.30;54.90
40289;DHT22;28991;52.028;5.526;2022-08-21T06:39:32;24.10;55.00
40289;DHT22;28991;52.028;5.526;2022-08-21T06:41:58;23.80;54.80
40289;DHT22;28991;52.028;5.526;2022-08-21T06:44:24;23.80;54.90
40289;DHT22;28991;52.028;5.526;2022-08-21T06:46:50;24.00;55.10
40289;DHT22;28991;52.028;5.526;2022-08-21T06:49:16;23.80;55.00
40289;DHT22;28991;52.028;5.526;2022-08-21T06:51:41;23.80;55.10
40289;DHT22;28991;52.028;5.526;2022-08-21T06:54:07;23.90;55.30
40289;DHT22;28991;52.028;5.526;2022-08-21T06:56:32;23.80;55.30
40289;DHT22;28991;52.028;5.526;2022-08-21T06:59:00;23.80;55.40
40289;DHT22;28991;52.028;5.526;2022-08-21T07:01:26;23.80;55.50
40289;DHT22;28991;52.028;5.526;2022-08-21T07:03:52;23.90;55.60
40289;DHT22;28991;52.028;5.526;2022-08-21T07:06:18;24.00;55.80
40289;DHT22;28991;52.028;5.526;2022-08-21T07:08:44;23.80;55.80
40289;DHT22;28991;52.028;5.526;2022-08-21T07:11:15;23.80;56.00
40289;DHT22;28991;52.028;5.526;2022-08-21T07:13:42;23.80;56.10
40289;DHT22;28991;52.028;5.526;2022-08-21T07:16:08;23.80;56.20
40289;DHT22;28991;52.028;5.526;2022-08-21T07:18:33;24.90;56.90
40289;DHT22;28991;52.028;5.526;2022-08-21T07:21:01;23.90;56.50
40289;DHT22;28991;52.028;5.526;2022-08-21T07:23:32;23.90;56.60
40289;DHT22;28991;52.028;5.526;2022-08-21T07:25:58;23.90;56.70
40289;DHT22;28991;52.028;5.526;2022-08-21T07:28:27;23.90;56.80
40289;DHT22;28991;52.028;5.526;2022-08-21T07:30:55;23.80;56.90
40289;DHT22;28991;52.028;5.526;2022-08-21T07:33:22;23.80;57.00
40289;DHT22;28991;52.028;5.526;2022-08-21T07:35:47;25.40;58.00
40289;DHT22;28991;52.028;5.526;2022-08-21T07:38:13;23.90;57.30
40289;DHT22;28991;52.028;5.526;2022-08-21T07:40:39;23.90;57.30
40289;DHT22;28991;52.028;5.526;2022-08-21T07:43:04;23.90;57.50
40289;DHT22;28991;52.028;5.526;2022-08-21T07:45:30;23.80;57.50
40289;DHT22;28991;52.028;5.526;2022-08-21T07:47:56;23.90;57.60
40289;DHT22;28991;52.028;5.526;2022-08-21T07:50:22;23.90;57.70
40289;DHT22;28991;52.028;5.526;2022-08-21T07:52:48;23.90;57.80
40289;DHT22;28991;52.028;5.526;2022-08-21T07:55:18;23.90;57.90
40289;DHT22;28991;52.028;5.526;2022-08-21T07:57:44;23.80;57.90
40289;DHT22;28991;52.028;5.526;2022-08-21T08:00:16;23.90;58.00
40289;DHT22;28991;52.028;5.526;2022-08-21T08:02:44;23.90;58.10
40289;DHT22;28991;52.028;5.526;2022-08-21T08:05:11;24.00;58.20
40289;DHT22;28991;52.028;5.526;2022-08-21T08:07:37;25.90;59.40
40289;DHT22;28991;52.028;5.526;2022-08-21T08:10:03;23.90;58.30
40289;DHT22;28991;52.028;5.526;2022-08-21T08:12:33;23.90;58.40
40289;DHT22;28991;52.028;5.526;2022-08-21T08:14:59;23.90;58.50
40289;DHT22;28991;52.028;5.526;2022-08-21T08:17:26;24.00;58.60
40289;DHT22;28991;52.028;5.526;2022-08-21T08:19:52;26.40;60.20
40289;DHT22;28991;52.028;5.526;2022-08-21T08:22:20;23.90;58.80
40289;DHT22;28991;52.028;5.526;2022-08-21T08:24:47;24.00;58.80
40289;DHT22;28991;52.028;5.526;2022-08-21T08:27:14;24.00;58.90
40289;DHT22;28991;52.028;5.526;2022-08-21T08:29:39;24.00;59.00
40289;DHT22;28991;52.028;5.526;2022-08-21T08:32:05;24.40;59.30
40289;DHT22;28991;52.028;5.526;2022-08-21T08:34:34;24.00;59.00
40289;DHT22;28991;52.028;5.526;2022-08-21T08:36:59;24.00;59.20
40289;DHT22;28991;52.028;5.526;2022-08-21T08:39:25;23.90;59.20
40289;DHT22;28991;52.028;5.526;2022-08-21T08:41:58;25.60;60.20
40289;DHT22;28991;52.028;5.526;2022-08-21T08:44:26;24.00;59.30
40289;DHT22;28991;52.028;5.526;2022-08-21T08:46:51;24.00;59.30
40289;DHT22;28991;52.028;5.526;2022-08-21T08:51:51;24.00;59.40
40289;DHT22;28991;52.028;5.526;2022-08-21T08:54:25;24.10;59.50
40289;DHT22;28991;52.028;5.526;2022-08-21T08:56:58;24.00;59.40
40289;DHT22;28991;52.028;5.526;2022-08-21T08:59:27;24.10;59.50
40289;DHT22;28991;52.028;5.526;2022-08-21T09:01:55;24.10;59.50
40289;DHT22;28991;52.028;5.526;2022-08-21T09:04:25;24.10;59.60
40289;DHT22;28991;52.028;5.526;2022-08-21T09:10:03;24.10;59.60
40289;DHT22;28991;52.028;5.526;2022-08-21T09:20:54;24.10;59.60
40289;DHT22;28991;52.028;5.526;2022-08-21T09:26:17;24.10;59.50
40289;DHT22;28991;52.028;5.526;2022-08-21T09:28:44;24.10;59.50
40289;DHT22;28991;52.028;5.526;2022-08-21T09:33:56;24.10;59.50
40289;DHT22;28991;52.028;5.526;2022-08-21T09:36:33;24.10;59.50
40289;DHT22;28991;52.028;5.526;2022-08-21T09:38:59;24.10;59.40
40289;DHT22;28991;52.028;5.526;2022-08-21T09:41:30;24.10;59.40
40289;DHT22;28991;52.028;5.526;2022-08-21T09:43:57;24.20;59.40
40289;DHT22;28991;52.028;5.526;2022-08-21T09:46:25;24.10;59.20
40289;DHT22;28991;52.028;5.526;2022-08-21T09:48:57;24.10;59.10
40289;DHT22;28991;52.028;5.526;2022-08-21T09:51:26;25.30;59.70
40289;DHT22;28991;52.028;5.526;2022-08-21T09:53:57;24.20;59.10
40289;DHT22;28991;52.028;5.526;2022-08-21T09:56:28;24.20;59.10
40289;DHT22;28991;52.028;5.526;2022-08-21T09:59:19;24.10;59.00
40289;DHT22;28991;52.028;5.526;2022-08-21T10:01:48;24.20;58.90
40289;DHT22;28991;52.028;5.526;2022-08-21T10:04:14;24.20;58.90
40289;DHT22;28991;52.028;5.526;2022-08-21T10:06:41;24.20;58.80
40289;DHT22;28991;52.028;5.526;2022-08-21T10:09:12;24.60;58.90
40289;DHT22;28991;52.028;5.526;2022-08-21T10:11:40;24.20;58.50
40289;DHT22;28991;52.028;5.526;2022-08-21T10:19:56;24.20;58.30
40289;DHT22;28991;52.028;5.526;2022-08-21T10:22:34;24.20;58.30
40289;DHT22;28991;52.028;5.526;2022-08-21T10:28:15;24.30;58.20
40289;DHT22;28991;52.028;5.526;2022-08-21T10:31:27;24.30;58.00
40289;DHT22;28991;52.028;5.526;2022-08-21T10:39:05;24.30;58.00
40289;DHT22;28991;52.028;5.526;2022-08-21T10:45:14;24.30;58.00
40289;DHT22;28991;52.028;5.526;2022-08-21T10:48:12;24.30;58.00
40289;DHT22;28991;52.028;5.526;2022-08-21T10:51:04;24.30;57.90
40289;DHT22;28991;52.028;5.526;2022-08-21T10:53:40;24.30;57.80
40289;DHT22;28991;52.028;5.526;2022-08-21T10:56:24;24.30;57.70
40289;DHT22;28991;52.028;5.526;2022-08-21T11:04:19;24.30;57.70
40289;DHT22;28991;52.028;5.526;2022-08-21T11:06:53;24.30;57.80
40289;DHT22;28991;52.028;5.526;2022-08-21T11:09:24;24.40;58.00
40289;DHT22;28991;52.028;5.526;2022-08-21T11:12:02;24.30;58.00
40289;DHT22;28991;52.028;5.526;2022-08-21T11:14:46;24.30;58.00
40289;DHT22;28991;52.028;5.526;2022-08-21T11:17:16;24.40;58.10
40289;DHT22;28991;52.028;5.526;2022-08-21T11:20:07;24.70;58.20
40289;DHT22;28991;52.028;5.526;2022-08-21T11:27:54;24.40;58.00
40289;DHT22;28991;52.028;5.526;2022-08-21T11:30:21;24.40;58.00
40289;DHT22;28991;52.028;5.526;2022-08-21T11:38:01;24.40;58.00
40289;DHT22;28991;52.028;5.526;2022-08-21T11:51:22;24.40;58.00
40289;DHT22;28991;52.028;5.526;2022-08-21T11:56:47;24.40;58.00
40289;DHT22;28991;52.028;5.526;2022-08-21T11:59:20;24.40;58.00
40289;DHT22;28991;52.028;5.526;2022-08-21T12:01:50;24.40;58.00
40289;DHT22;28991;52.028;5.526;2022-08-21T12:04:34;24.50;58.10
40289;DHT22;28991;52.028;5.526;2022-08-21T12:07:14;24.50;58.00
40289;DHT22;28991;52.028;5.526;2022-08-21T12:09:39;24.50;58.00
40289;DHT22;28991;52.028;5.526;2022-08-21T12:14:44;24.50;58.00
40289;DHT22;28991;52.028;5.526;2022-08-21T12:17:21;24.40;58.00
40289;DHT22;28991;52.028;5.526;2022-08-21T12:19:58;24.50;58.00
40289;DHT22;28991;52.028;5.526;2022-08-21T12:22:39;25.00;58.30
40289;DHT22;28991;52.028;5.526;2022-08-21T12:25:13;24.40;57.90
40289;DHT22;28991;52.028;5.526;2022-08-21T12:32:59;24.30;57.90
40289;DHT22;28991;52.028;5.526;2022-08-21T12:35:31;24.50;58.00
40289;DHT22;28991;52.028;5.526;2022-08-21T12:38:19;24.50;58.00
40289;DHT22;28991;52.028;5.526;2022-08-21T12:40:53;24.50;58.00
40289;DHT22;28991;52.028;5.526;2022-08-21T12:45:50;25.60;58.70
40289;DHT22;28991;52.028;5.526;2022-08-21T12:48:33;24.50;58.00
40289;DHT22;28991;52.028;5.526;2022-08-21T12:51:13;24.50;58.00
40289;DHT22;28991;52.028;5.526;2022-08-21T12:56:17;24.50;58.00
40289;DHT22;28991;52.028;5.526;2022-08-21T12:59:12;24.80;58.10
40289;DHT22;28991;52.028;5.526;2022-08-21T13:01:45;24.50;58.00
40289;DHT22;28991;52.028;5.526;2022-08-21T13:04:17;24.50;58.00
40289;DHT22;28991;52.028;5.526;2022-08-21T13:06:49;24.60;58.00
40289;DHT22;28991;52.028;5.526;2022-08-21T13:09:20;24.50;58.00
40289;DHT22;28991;52.028;5.526;2022-08-21T13:11:48;24.50;58.00
40289;DHT22;28991;52.028;5.526;2022-08-21T13:14:30;24.50;58.00
40289;DHT22;28991;52.028;5.526;2022-08-21T13:16:59;24.50;58.00
40289;DHT22;28991;52.028;5.526;2022-08-21T13:19:25;24.50;58.00
40289;DHT22;28991;52.028;5.526;2022-08-21T13:21:52;24.50;58.00
40289;DHT22;28991;52.028;5.526;2022-08-21T13:24:47;24.60;58.10
40289;DHT22;28991;52.028;5.526;2022-08-21T13:27:26;24.60;58.00
40289;DHT22;28991;52.028;5.526;2022-08-21T13:32:41;24.50;57.90
40289;DHT22;28991;52.028;5.526;2022-08-21T13:35:19;24.60;58.00
40289;DHT22;28991;52.028;5.526;2022-08-21T13:37:48;24.60;58.00
40289;DHT22;28991;52.028;5.526;2022-08-21T13:40:16;24.80;58.10
40289;DHT22;28991;52.028;5.526;2022-08-21T13:42:44;24.50;57.90
40289;DHT22;28991;52.028;5.526;2022-08-21T13:45:31;24.50;57.90
40289;DHT22;28991;52.028;5.526;2022-08-21T13:48:00;24.50;57.90
40289;DHT22;28991;52.028;5.526;2022-08-21T13:50:29;24.60;58.00
40289;DHT22;28991;52.028;5.526;2022-08-21T13:52:56;24.60;58.00
40289;DHT22;28991;52.028;5.526;2022-08-21T13:55:23;24.60;58.00
40289;DHT22;28991;52.028;5.526;2022-08-21T13:57:59;24.60;58.00
40289;DHT22;28991;52.028;5.526;2022-08-21T14:00:27;24.60;57.90
40289;DHT22;28991;52.028;5.526;2022-08-21T14:02:54;24.60;57.90
40289;DHT22;28991;52.028;5.526;2022-08-21T14:05:30;24.60;58.00
40289;DHT22;28991;52.028;5.526;2022-08-21T14:08:24;24.60;57.90
40289;DHT22;28991;52.028;5.526;2022-08-21T14:10:52;24.60;57.90
40289;DHT22;28991;52.028;5.526;2022-08-21T14:13:33;24.60;58.00
40289;DHT22;28991;52.028;5.526;2022-08-21T14:16:02;24.60;57.90
40289;DHT22;28991;52.028;5.526;2022-08-21T14:18:28;24.60;57.90
40289;DHT22;28991;52.028;5.526;2022-08-21T14:21:05;24.60;57.90
40289;DHT22;28991;52.028;5.526;2022-08-21T14:23:31;24.60;57.90
40289;DHT22;28991;52.028;5.526;2022-08-21T14:26:00;24.60;57.90
40289;DHT22;28991;52.028;5.526;2022-08-21T14:28:28;24.70;58.00
40289;DHT22;28991;52.028;5.526;2022-08-21T14:30:55;24.60;57.90
40289;DHT22;28991;52.028;5.526;2022-08-21T14:33:28;24.60;57.90
40289;DHT22;28991;52.028;5.526;2022-08-21T14:35:54;24.60;57.90
40289;DHT22;28991;52.028;5.526;2022-08-21T14:38:22;25.20;58.20
40289;DHT22;28991;52.028;5.526;2022-08-21T14:40:52;24.80;58.00
40289;DHT22;28991;52.028;5.526;2022-08-21T14:43:19;25.70;58.60
40289;DHT22;28991;52.028;5.526;2022-08-21T14:45:45;24.70;58.60
40289;DHT22;28991;52.028;5.526;2022-08-21T14:48:11;24.50;57.90
40289;DHT22;28991;52.028;5.526;2022-08-21T14:50:38;24.60;57.90
40289;DHT22;28991;52.028;5.526;2022-08-21T14:53:04;24.60;57.90
40289;DHT22;28991;52.028;5.526;2022-08-21T14:55:33;24.60;57.90
40289;DHT22;28991;52.028;5.526;2022-08-21T14:58:22;26.40;59.10
40289;DHT22;28991;52.028;5.526;2022-08-21T15:00:49;24.60;57.90
40289;DHT22;28991;52.028;5.526;2022-08-21T15:03:14;24.60;57.90
40289;DHT22;28991;52.028;5.526;2022-08-21T15:05:40;24.60;57.90
40289;DHT22;28991;52.028;5.526;2022-08-21T15:08:06;24.70;58.00
40289;DHT22;28991;52.028;5.526;2022-08-21T15:10:33;24.60;58.00
40289;DHT22;28991;52.028;5.526;2022-08-21T15:12:59;24.70;58.00
40289;DHT22;28991;52.028;5.526;2022-08-21T15:15:25;24.60;58.00
40289;DHT22;28991;52.028;5.526;2022-08-21T15:17:51;24.60;58.00
40289;DHT22;28991;52.028;5.526;2022-08-21T15:20:17;24.60;57.90
40289;DHT22;28991;52.028;5.526;2022-08-21T15:22:42;24.60;57.90
40289;DHT22;28991;52.028;5.526;2022-08-21T15:25:08;26.40;59.10
40289;DHT22;28991;52.028;5.526;2022-08-21T15:27:34;24.70;58.00
40289;DHT22;28991;52.028;5.526;2022-08-21T15:30:02;24.60;57.90
40289;DHT22;28991;52.028;5.526;2022-08-21T15:32:28;24.60;57.90
40289;DHT22;28991;52.028;5.526;2022-08-21T15:34:57;24.60;57.90
40289;DHT22;28991;52.028;5.526;2022-08-21T15:37:23;24.70;58.00
40289;DHT22;28991;52.028;5.526;2022-08-21T15:39:51;24.60;58.00
40289;DHT22;28991;52.028;5.526;2022-08-21T15:42:17;24.60;58.00
40289;DHT22;28991;52.028;5.526;2022-08-21T15:44:43;24.70;58.00
40289;DHT22;28991;52.028;5.526;2022-08-21T15:47:12;24.70;58.00
40289;DHT22;28991;52.028;5.526;2022-08-21T15:49:39;26.40;59.20
40289;DHT22;28991;52.028;5.526;2022-08-21T15:52:04;24.70;58.00
40289;DHT22;28991;52.028;5.526;2022-08-21T15:54:30;24.70;58.00
40289;DHT22;28991;52.028;5.526;2022-08-21T15:56:55;24.70;58.00
40289;DHT22;28991;52.028;5.526;2022-08-21T15:59:22;24.70;58.00
40289;DHT22;28991;52.028;5.526;2022-08-21T16:01:51;24.60;58.00
40289;DHT22;28991;52.028;5.526;2022-08-21T16:04:25;24.70;58.00
40289;DHT22;28991;52.028;5.526;2022-08-21T16:06:52;24.70;58.00
40289;DHT22;28991;52.028;5.526;2022-08-21T16:09:18;25.80;58.70
40289;DHT22;28991;52.028;5.526;2022-08-21T16:11:44;24.70;58.10
40289;DHT22;28991;52.028;5.526;2022-08-21T16:14:14;24.70;58.10
40289;DHT22;28991;52.028;5.526;2022-08-21T16:16:41;24.70;58.10
40289;DHT22;28991;52.028;5.526;2022-08-21T16:19:07;24.70;58.10
40289;DHT22;28991;52.028;5.526;2022-08-21T16:21:34;24.70;58.10
40289;DHT22;28991;52.028;5.526;2022-08-21T16:24:00;25.30;58.40
40289;DHT22;28991;52.028;5.526;2022-08-21T16:26:26;24.70;58.10
40289;DHT22;28991;52.028;5.526;2022-08-21T16:28:54;24.70;58.10
40289;DHT22;28991;52.028;5.526;2022-08-21T16:31:22;24.70;58.00
40289;DHT22;28991;52.028;5.526;2022-08-21T16:33:50;24.70;58.10
40289;DHT22;28991;52.028;5.526;2022-08-21T16:36:16;24.70;58.10
40289;DHT22;28991;52.028;5.526;2022-08-21T16:38:42;24.70;58.10
40289;DHT22;28991;52.028;5.526;2022-08-21T16:41:11;24.70;58.00
40289;DHT22;28991;52.028;5.526;2022-08-21T16:43:38;24.70;58.00
40289;DHT22;28991;52.028;5.526;2022-08-21T16:46:04;24.70;58.10
40289;DHT22;28991;52.028;5.526;2022-08-21T16:48:29;24.90;58.20
40289;DHT22;28991;52.028;5.526;2022-08-21T16:50:56;24.70;58.00
40289;DHT22;28991;52.028;5.526;2022-08-21T16:53:22;24.70;58.00
40289;DHT22;28991;52.028;5.526;2022-08-21T16:55:49;24.70;58.10
40289;DHT22;28991;52.028;5.526;2022-08-21T16:58:28;24.70;58.00
40289;DHT22;28991;52.028;5.526;2022-08-21T17:00:54;24.70;58.10